createdAt,value
2022-12-25T00:01:26.382Z,100749.88
2022-12-25T00:03:56.615Z,100750.15
2022-12-25T00:06:25.082Z,100755.31
2022-12-25T00:08:52.981Z,100755.94
2022-12-25T00:11:22.045Z,100755.34
2022-12-25T00:13:50.083Z,100756.20
2022-12-25T00:16:23.298Z,100758.70
2022-12-25T00:18:51.930Z,100766.59
2022-12-25T00:21:21.345Z,100768.19
2022-12-25T00:23:55.198Z,100760.20
2022-12-25T00:26:24.699Z,100758.90
2022-12-25T00:28:54.810Z,100764.42
2022-12-25T00:31:24.468Z,100769.67
2022-12-25T00:33:53.415Z,100765.11
2022-12-25T00:36:23.577Z,100759.89
2022-12-25T00:38:51.450Z,100762.02
2022-12-25T00:41:41.367Z,100764.73
2022-12-25T00:44:12.564Z,100764.02
2022-12-25T00:46:42.165Z,100754.27
2022-12-25T00:49:12.421Z,100761.80
2022-12-25T00:51:40.390Z,100762.52
2022-12-25T00:54:08.847Z,100765.64
2022-12-25T00:56:36.853Z,100764.92
2022-12-25T00:59:04.743Z,100768.88
2022-12-25T01:01:33.172Z,100770.91
2022-12-25T01:04:01.550Z,100776.88
2022-12-25T01:06:29.811Z,100785.80
2022-12-25T01:09:16.951Z,100789.39
2022-12-25T01:11:45.078Z,100789.42
2022-12-25T01:14:13.108Z,100792.70
2022-12-25T01:16:41.449Z,100792.13
2022-12-25T01:19:10.322Z,100792.16
2022-12-25T01:21:38.878Z,100797.27
2022-12-25T01:24:07.177Z,100798.35
2022-12-25T01:26:35.171Z,100802.52
2022-12-25T01:29:03.607Z,100800.83
2022-12-25T01:31:31.658Z,100801.95
2022-12-25T01:33:59.662Z,100801.05
2022-12-25T01:36:27.697Z,100801.33
2022-12-25T01:38:55.711Z,100803.41
2022-12-25T01:41:25.423Z,100805.01
2022-12-25T01:44:00.419Z,100809.15
2022-12-25T01:46:30.070Z,100811.80
2022-12-25T01:49:03.943Z,100816.77
2022-12-25T01:51:41.419Z,100811.11
2022-12-25T01:54:28.271Z,100811.61
2022-12-25T01:57:01.407Z,100819.69
2022-12-25T01:59:29.792Z,100825.41
2022-12-25T02:01:59.160Z,100831.21
2022-12-25T02:05:04.410Z,100836.14
2022-12-25T02:07:36.579Z,100829.52
2022-12-25T02:10:04.959Z,100827.85
2022-12-25T02:12:35.267Z,100827.11
2022-12-25T02:15:11.255Z,100822.15
2022-12-25T02:18:18.834Z,100826.33
2022-12-25T02:21:23.159Z,100831.48
2022-12-25T02:24:35.749Z,100839.87
2022-12-25T02:28:04.404Z,100838.71
2022-12-25T02:30:46.171Z,100840.09
2022-12-25T02:33:47.106Z,100836.66
2022-12-25T02:36:23.190Z,100829.85
2022-12-25T02:39:18.165Z,100821.69
2022-12-25T02:41:49.981Z,100830.33
2022-12-25T02:44:41.930Z,100826.55
2022-12-25T02:47:29.642Z,100824.98
2022-12-25T02:50:17.751Z,100825.89
2022-12-25T02:53:06.307Z,100830.31
2022-12-25T02:55:59.287Z,100831.85
2022-12-25T02:58:47.137Z,100829.73
2022-12-25T03:01:39.773Z,100836.42
2022-12-25T03:04:37.354Z,100839.39
2022-12-25T03:07:16.406Z,100842.64
2022-12-25T03:10:16.723Z,100850.20
2022-12-25T03:13:23.057Z,100850.52
2022-12-25T03:16:10.183Z,100853.80
2022-12-25T03:18:38.419Z,100851.27
2022-12-25T03:21:25.531Z,100855.34
2022-12-25T03:24:19.616Z,100856.91
2022-12-25T03:26:58.003Z,100853.73
2022-12-25T03:29:51.697Z,100846.08
2022-12-25T03:32:51.759Z,100848.23
2022-12-25T03:35:44.092Z,100851.64
2022-12-25T03:38:40.509Z,100854.20
2022-12-25T03:41:59.292Z,100856.20
2022-12-25T03:45:14.967Z,100859.60
2022-12-25T03:48:09.092Z,100860.55
2022-12-25T03:51:22.213Z,100862.80
2022-12-25T03:54:14.676Z,100861.52
2022-12-25T03:57:02.684Z,100854.59
2022-12-25T03:59:49.258Z,100864.56
2022-12-25T04:02:36.595Z,100862.91
2022-12-25T04:05:24.129Z,100863.20
2022-12-25T04:08:10.561Z,100866.48
2022-12-25T04:10:57.245Z,100869.84
2022-12-25T04:13:43.841Z,100869.22
2022-12-25T04:16:30.449Z,100867.31
2022-12-25T04:19:16.971Z,100873.19
2022-12-25T04:22:03.669Z,100879.86
2022-12-25T04:24:49.992Z,100887.52
2022-12-25T04:27:36.703Z,100890.36
2022-12-25T04:30:24.036Z,100893.81
2022-12-25T04:33:16.965Z,100894.78
2022-12-25T04:36:07.620Z,100892.16
2022-12-25T04:38:37.609Z,100892.28
2022-12-25T04:41:08.226Z,100895.65
2022-12-25T04:43:36.332Z,100898.34
2022-12-25T04:46:05.380Z,100902.95
2022-12-25T04:48:36.191Z,100901.10
2022-12-25T04:51:20.420Z,100899.67
2022-12-25T04:53:50.139Z,100902.79
2022-12-25T04:56:18.767Z,100908.44
2022-12-25T04:58:47.403Z,100915.98
2022-12-25T05:01:15.695Z,100916.80
2022-12-25T05:03:43.841Z,100916.10
2022-12-25T05:06:12.865Z,100912.27
2022-12-25T05:08:40.803Z,100911.20
2022-12-25T05:11:13.943Z,100913.03
2022-12-25T05:13:42.846Z,100914.60
2022-12-25T05:16:19.299Z,100912.70
2022-12-25T05:18:52.019Z,100913.03
2022-12-25T05:21:20.552Z,100913.87
2022-12-25T05:23:53.136Z,100914.38
2022-12-25T05:26:25.606Z,100914.04
2022-12-25T05:28:54.952Z,100920.84
2022-12-25T05:31:23.198Z,100927.61
2022-12-25T05:33:52.790Z,100924.54
2022-12-25T05:36:20.791Z,100933.91
2022-12-25T05:38:48.641Z,100944.73
2022-12-25T05:41:16.655Z,100951.91
2022-12-25T05:43:44.667Z,100957.14
2022-12-25T05:46:13.909Z,100956.97
2022-12-25T05:48:42.076Z,100964.77
2022-12-25T05:51:13.980Z,100965.79
2022-12-25T05:53:43.391Z,100978.11
2022-12-25T05:56:11.368Z,100981.52
2022-12-25T05:58:40.331Z,100979.23
2022-12-25T06:01:16.483Z,100987.98
2022-12-25T06:03:44.653Z,100987.98
2022-12-25T06:06:13.222Z,100992.89
2022-12-25T06:08:41.874Z,100996.55
2022-12-25T06:11:12.379Z,100995.90
2022-12-25T06:13:40.712Z,100994.80
2022-12-25T06:16:12.988Z,101000.84
2022-12-25T06:18:47.234Z,101002.30
2022-12-25T06:21:16.638Z,101006.73
2022-12-25T06:23:45.182Z,101013.67
2022-12-25T06:26:19.712Z,101018.44
2022-12-25T06:28:47.869Z,101020.13
2022-12-25T06:31:21.111Z,101022.92
2022-12-25T06:33:49.859Z,101030.39
2022-12-25T06:36:25.004Z,101033.05
2022-12-25T06:38:54.029Z,101037.26
2022-12-25T06:41:25.473Z,101039.30
2022-12-25T06:43:57.928Z,101038.41
2022-12-25T06:46:29.223Z,101036.52
2022-12-25T06:48:59.155Z,101041.14
2022-12-25T06:51:30.752Z,101043.35
2022-12-25T06:53:59.783Z,101049.63
2022-12-25T06:56:28.569Z,101051.64
2022-12-25T06:59:03.454Z,101046.13
2022-12-25T07:01:47.766Z,101047.05
2022-12-25T07:04:27.317Z,101044.92
2022-12-25T07:06:55.248Z,101048.34
2022-12-25T07:09:23.244Z,101047.92
2022-12-25T07:11:51.135Z,101052.05
2022-12-25T07:14:24.432Z,101050.86
2022-12-25T07:16:52.898Z,101054.05
2022-12-25T07:19:21.009Z,101053.71
2022-12-25T07:21:48.927Z,101049.98
2022-12-25T07:24:22.160Z,101050.33
2022-12-25T07:26:51.631Z,101049.31
2022-12-25T07:29:19.753Z,101048.68
2022-12-25T07:31:47.926Z,101045.19
2022-12-25T07:34:19.474Z,101049.05
2022-12-25T07:36:47.354Z,101044.35
2022-12-25T07:39:16.289Z,101046.27
2022-12-25T07:41:44.643Z,101049.58
2022-12-25T07:44:16.169Z,101046.55
2022-12-25T07:46:44.052Z,101045.59
2022-12-25T07:49:12.703Z,101043.89
2022-12-25T07:51:40.703Z,101043.70
2022-12-25T07:54:08.732Z,101041.93
2022-12-25T07:56:36.685Z,101049.20
2022-12-25T07:59:04.612Z,101053.27
2022-12-25T08:01:32.810Z,101058.02
2022-12-25T08:04:02.263Z,101065.90
2022-12-25T08:06:33.860Z,101069.98
2022-12-25T08:09:06.466Z,101066.76
2022-12-25T08:11:34.463Z,101069.35
2022-12-25T08:14:08.838Z,101069.30
2022-12-25T08:16:39.852Z,101072.39
2022-12-25T08:19:09.476Z,101069.52
2022-12-25T08:21:38.503Z,101078.13
2022-12-25T08:24:06.739Z,101079.95
2022-12-25T08:26:34.799Z,101083.84
2022-12-25T08:29:02.854Z,101086.32
2022-12-25T08:31:31.227Z,101090.02
2022-12-25T08:34:01.649Z,101091.34
2022-12-25T08:36:30.538Z,101095.40
2022-12-25T08:39:03.105Z,101096.95
2022-12-25T08:41:32.325Z,101102.07
2022-12-25T08:44:00.231Z,101108.55
2022-12-25T08:46:28.544Z,101115.21
2022-12-25T08:48:57.155Z,101114.72
2022-12-25T08:51:26.127Z,101117.33
2022-12-25T08:54:00.882Z,101118.25
2022-12-25T08:56:29.236Z,101118.90
2022-12-25T08:58:57.297Z,101117.41
2022-12-25T09:01:25.407Z,101122.48
2022-12-25T09:03:53.418Z,101120.66
2022-12-25T09:06:21.366Z,101120.35
2022-12-25T09:08:50.071Z,101118.57
2022-12-25T09:11:19.793Z,101117.50
2022-12-25T09:13:49.189Z,101120.11
2022-12-25T09:16:20.869Z,101119.69
2022-12-25T09:18:49.824Z,101120.17
2022-12-25T09:21:18.904Z,101122.41
2022-12-25T09:23:46.898Z,101123.38
2022-12-25T09:26:18.436Z,101127.46
2022-12-25T09:28:51.249Z,101124.77
2022-12-25T09:31:22.982Z,101125.32
2022-12-25T09:33:51.641Z,101130.64
2022-12-25T09:36:23.186Z,101137.17
2022-12-25T09:38:51.603Z,101136.30
2022-12-25T09:41:33.148Z,101139.27
2022-12-25T09:44:11.177Z,101135.18
2022-12-25T09:47:14.606Z,101134.64
2022-12-25T09:50:05.259Z,101135.88
2022-12-25T09:52:55.021Z,101135.20
2022-12-25T09:55:26.329Z,101136.38
2022-12-25T09:57:57.997Z,101141.71
2022-12-25T10:00:40.590Z,101138.05
2022-12-25T10:03:34.603Z,101138.95
2022-12-25T10:06:25.063Z,101129.51
2022-12-25T10:09:20.576Z,101122.34
2022-12-25T10:12:10.409Z,101114.86
2022-12-25T10:15:14.886Z,101112.75
2022-12-25T10:18:52.104Z,101105.66
2022-12-25T10:21:22.123Z,101107.78
2022-12-25T10:24:06.623Z,101109.42
2022-12-25T10:26:35.608Z,101109.21
2022-12-25T10:29:19.452Z,101105.74
2022-12-25T10:31:53.719Z,101100.20
2022-12-25T10:34:22.320Z,101097.95
2022-12-25T10:36:51.053Z,101101.67
2022-12-25T10:39:25.787Z,101100.02
2022-12-25T10:42:26.726Z,101097.43
2022-12-25T10:45:03.111Z,101091.66
2022-12-25T10:47:38.937Z,101088.75
2022-12-25T10:50:25.242Z,101088.02
2022-12-25T10:53:09.308Z,101088.48
2022-12-25T10:55:37.204Z,101087.59
2022-12-25T10:58:05.797Z,101085.80
2022-12-25T11:00:33.757Z,101080.56
2022-12-25T11:03:02.089Z,101080.11
2022-12-25T11:05:34.066Z,101091.73
2022-12-25T11:08:03.793Z,101092.48
2022-12-25T11:10:44.031Z,101086.90
2022-12-25T11:13:30.761Z,101086.23
2022-12-25T11:16:05.795Z,101093.79
2022-12-25T11:18:45.922Z,101093.88
2022-12-25T11:21:32.064Z,101094.24
2022-12-25T11:24:19.196Z,101094.25
2022-12-25T11:26:57.377Z,101101.60
2022-12-25T11:29:53.313Z,101096.69
2022-12-25T11:32:29.744Z,101104.14
2022-12-25T11:34:58.703Z,101103.79
2022-12-25T11:37:38.422Z,101105.09
2022-12-25T11:40:14.261Z,101108.02
2022-12-25T11:42:51.644Z,101109.20
2022-12-25T11:45:25.658Z,101104.23
2022-12-25T11:48:15.788Z,101101.43
2022-12-25T11:50:54.577Z,101092.05
2022-12-25T11:53:31.775Z,101088.52
2022-12-25T11:56:15.806Z,101085.48
2022-12-25T11:58:50.827Z,101082.52
2022-12-25T12:01:33.593Z,101077.90
2022-12-25T12:04:06.774Z,101082.17
2022-12-25T12:07:03.652Z,101082.23
2022-12-25T12:10:03.005Z,101081.23
2022-12-25T12:12:46.813Z,101081.50
2022-12-25T12:15:46.012Z,101077.88
2022-12-25T12:18:50.131Z,101066.48
2022-12-25T12:21:26.195Z,101062.20
2022-12-25T12:24:10.892Z,101065.85
2022-12-25T12:26:42.454Z,101062.73
2022-12-25T12:29:39.550Z,101065.96
2022-12-25T12:32:24.881Z,101071.91
2022-12-25T12:34:52.938Z,101069.90
2022-12-25T12:37:36.162Z,101065.08
2022-12-25T12:40:06.939Z,101065.83
2022-12-25T12:42:46.292Z,101066.58
2022-12-25T12:45:24.061Z,101060.67
2022-12-25T12:47:52.810Z,101064.47
2022-12-25T12:50:42.382Z,101064.79
2022-12-25T12:53:22.403Z,101064.83
2022-12-25T12:55:52.056Z,101058.93
2022-12-25T12:58:36.093Z,101053.73
2022-12-25T13:01:35.973Z,101042.66
2022-12-25T13:04:32.377Z,101042.73
2022-12-25T13:07:44.012Z,101031.04
2022-12-25T13:10:31.119Z,101033.05
2022-12-25T13:13:14.817Z,101030.00
2022-12-25T13:15:48.162Z,101028.52
2022-12-25T13:18:17.002Z,101028.25
2022-12-25T13:21:18.698Z,101033.84
2022-12-25T13:23:46.628Z,101035.68
2022-12-25T13:26:17.397Z,101032.23
2022-12-25T13:28:47.191Z,101032.83
2022-12-25T13:31:27.280Z,101031.13
2022-12-25T13:34:04.355Z,101034.63
2022-12-25T13:36:40.065Z,101039.20
2022-12-25T13:39:09.708Z,101033.63
2022-12-25T13:42:03.765Z,101036.59
2022-12-25T13:44:49.392Z,101040.24
2022-12-25T13:47:33.133Z,101033.67
2022-12-25T13:50:29.102Z,101027.11
2022-12-25T13:53:11.844Z,101016.89
2022-12-25T13:55:41.604Z,101008.25
2022-12-25T13:58:22.697Z,101008.23
2022-12-25T14:00:54.123Z,101004.45
2022-12-25T14:03:46.036Z,101003.95
2022-12-25T14:06:30.485Z,101003.46
2022-12-25T14:08:59.560Z,100999.50
2022-12-25T14:11:30.925Z,101005.73
2022-12-25T14:14:15.206Z,101006.38
2022-12-25T14:16:48.716Z,100998.13
2022-12-25T14:19:31.546Z,101005.70
2022-12-25T14:22:20.768Z,101008.92
2022-12-25T14:24:48.996Z,101014.45
2022-12-25T14:27:20.275Z,101021.23
2022-12-25T14:29:50.979Z,101025.50
2022-12-25T14:32:30.168Z,101023.95
2022-12-25T14:35:03.398Z,101024.00
2022-12-25T14:37:34.024Z,101030.72
2022-12-25T14:40:06.697Z,101026.89
2022-12-25T14:42:35.153Z,101027.23
2022-12-25T14:45:34.503Z,101026.15
2022-12-25T14:48:24.440Z,101036.27
2022-12-25T14:51:03.048Z,101040.95
2022-12-25T14:53:56.148Z,101039.60
2022-12-25T14:56:26.505Z,101026.81
2022-12-25T14:58:58.430Z,101017.81
2022-12-25T15:01:41.392Z,101014.66
2022-12-25T15:04:09.540Z,101008.51
2022-12-25T15:06:41.800Z,101004.47
2022-12-25T15:09:16.084Z,101000.95
2022-12-25T15:11:47.709Z,100997.66
2022-12-25T15:14:15.582Z,101001.80
2022-12-25T15:16:53.775Z,101005.91
2022-12-25T15:19:36.854Z,101003.30
2022-12-25T15:22:06.227Z,100995.48
2022-12-25T15:24:34.089Z,100989.41
2022-12-25T15:27:01.955Z,100982.55
2022-12-25T15:30:07.873Z,100989.75
2022-12-25T15:32:22.708Z,101010.10
2022-12-25T15:34:51.208Z,101018.21
2022-12-25T15:37:19.442Z,101012.99
2022-12-25T15:39:47.393Z,101006.23
2022-12-25T15:42:21.721Z,101002.18
2022-12-25T15:44:50.561Z,101011.65
2022-12-25T15:47:22.889Z,101006.46
2022-12-25T15:49:50.802Z,101002.91
2022-12-25T15:52:18.770Z,101020.38
2022-12-25T15:54:46.714Z,101026.88
2022-12-25T15:57:23.068Z,101016.88
2022-12-25T15:59:51.119Z,101009.14
2022-12-25T16:02:20.851Z,100991.02
2022-12-25T16:04:50.968Z,100988.51
2022-12-25T16:07:22.973Z,100989.63
2022-12-25T16:09:52.050Z,100990.36
2022-12-25T16:12:20.029Z,100985.30
2022-12-25T16:14:48.064Z,100985.85
2022-12-25T16:17:16.222Z,100991.52
2022-12-25T16:19:44.902Z,100984.44
2022-12-25T16:22:25.380Z,100979.83
2022-12-25T16:24:53.641Z,100983.27
2022-12-25T16:27:21.841Z,100986.86
2022-12-25T16:29:49.942Z,100991.98
2022-12-25T16:32:17.988Z,100975.94
2022-12-25T16:34:48.754Z,100975.77
2022-12-25T16:37:16.620Z,100982.30
2022-12-25T16:39:44.518Z,100982.61
2022-12-25T16:42:12.682Z,100976.11
2022-12-25T16:44:40.675Z,100967.48
2022-12-25T16:47:08.492Z,100965.70
2022-12-25T16:49:36.513Z,100965.23
2022-12-25T16:52:04.707Z,100960.96
2022-12-25T16:54:32.564Z,100955.55
2022-12-25T16:57:00.533Z,100954.38
2022-12-25T16:59:31.333Z,100946.48
2022-12-25T17:01:59.329Z,100934.74
2022-12-25T17:04:28.007Z,100935.14
2022-12-25T17:06:56.235Z,100941.17
2022-12-25T17:09:24.642Z,100947.30
2022-12-25T17:11:52.611Z,100936.66
2022-12-25T17:14:20.484Z,100923.77
2022-12-25T17:16:48.457Z,100928.56
2022-12-25T17:19:20.251Z,100928.50
2022-12-25T17:21:48.122Z,100927.70
2022-12-25T17:24:17.573Z,100920.60
2022-12-25T17:26:45.639Z,100915.20
2022-12-25T17:29:20.114Z,100908.11
2022-12-25T17:31:51.450Z,100899.16
2022-12-25T17:34:20.055Z,100889.89
2022-12-25T17:36:48.106Z,100896.10
2022-12-25T17:39:16.122Z,100905.05
2022-12-25T17:41:44.037Z,100906.78
2022-12-25T17:44:12.060Z,100895.52
2022-12-25T17:46:40.149Z,100890.48
2022-12-25T17:49:14.308Z,100891.88
2022-12-25T17:51:42.413Z,100883.91
2022-12-25T17:54:10.500Z,100879.48
2022-12-25T17:56:38.775Z,100878.31
2022-12-25T17:59:08.390Z,100872.75
2022-12-25T18:01:39.128Z,100875.90
2022-12-25T18:04:07.376Z,100872.83
2022-12-25T18:06:36.896Z,100870.64
2022-12-25T18:09:06.085Z,100861.63
2022-12-25T18:11:36.964Z,100855.58
2022-12-25T18:14:07.264Z,100856.11
2022-12-25T18:16:38.591Z,100863.98
2022-12-25T18:19:06.926Z,100866.94
2022-12-25T18:21:35.556Z,100866.13
2022-12-25T18:24:05.595Z,100859.89
2022-12-25T18:26:34.093Z,100846.95
2022-12-25T18:29:02.881Z,100832.55
2022-12-25T18:31:31.179Z,100829.04
2022-12-25T18:34:00.207Z,100825.89
2022-12-25T18:36:29.992Z,100823.63
2022-12-25T18:38:58.266Z,100825.57
2022-12-25T18:41:28.650Z,100819.89
2022-12-25T18:43:59.716Z,100816.17
2022-12-25T18:46:28.502Z,100810.96
2022-12-25T18:48:57.479Z,100809.64
2022-12-25T18:51:29.954Z,100804.05
2022-12-25T18:54:02.955Z,100795.33
2022-12-25T18:56:30.929Z,100784.64
2022-12-25T18:59:00.579Z,100782.67
2022-12-25T19:01:28.881Z,100781.11
2022-12-25T19:04:04.694Z,100768.14
2022-12-25T19:06:34.029Z,100765.22
2022-12-25T19:09:08.951Z,100760.52
2022-12-25T19:11:46.487Z,100763.98
2022-12-25T19:14:15.500Z,100763.30
2022-12-25T19:16:44.091Z,100756.33
2022-12-25T19:19:12.282Z,100748.80
2022-12-25T19:21:40.930Z,100737.95
2022-12-25T19:24:09.202Z,100736.10
2022-12-25T19:26:37.715Z,100726.23
2022-12-25T19:29:05.748Z,100720.31
2022-12-25T19:31:34.749Z,100718.64
2022-12-25T19:34:02.880Z,100715.32
2022-12-25T19:36:31.121Z,100715.23
2022-12-25T19:38:59.137Z,100698.14
2022-12-25T19:41:27.332Z,100687.66
2022-12-25T19:43:55.253Z,100677.75
2022-12-25T19:46:27.003Z,100678.96
2022-12-25T19:48:56.811Z,100665.81
2022-12-25T19:51:28.875Z,100669.52
2022-12-25T19:53:57.087Z,100670.78
2022-12-25T19:56:27.612Z,100676.20
2022-12-25T19:58:56.819Z,100674.73
2022-12-25T20:01:28.527Z,100672.09
2022-12-25T20:03:57.386Z,100675.27
2022-12-25T20:06:30.180Z,100672.55
2022-12-25T20:09:01.409Z,100674.13
2022-12-25T20:11:31.339Z,100668.39
2022-12-25T20:13:59.360Z,100659.55
2022-12-25T20:16:28.167Z,100653.81
2022-12-25T20:18:58.109Z,100648.02
2022-12-25T20:21:29.960Z,100647.94
2022-12-25T20:23:58.770Z,100639.34
2022-12-25T20:26:30.834Z,100635.88
2022-12-25T20:28:59.146Z,100620.73
2022-12-25T20:31:34.122Z,100615.95
2022-12-25T20:34:11.198Z,100614.17
2022-12-25T20:36:39.667Z,100615.15
2022-12-25T20:39:10.502Z,100618.86
2022-12-25T20:41:39.478Z,100624.39
2022-12-25T20:44:10.132Z,100623.49
2022-12-25T20:46:38.437Z,100623.40
2022-12-25T20:49:06.447Z,100622.55
2022-12-25T20:51:34.456Z,100629.54
2022-12-25T20:54:09.568Z,100634.95
2022-12-25T20:56:37.578Z,100633.44
2022-12-25T20:59:05.729Z,100630.92
2022-12-25T21:01:33.856Z,100620.54
2022-12-25T21:04:01.986Z,100623.98
2022-12-25T21:06:29.991Z,100620.75
2022-12-25T21:08:57.893Z,100619.98
2022-12-25T21:11:26.131Z,100617.08
2022-12-25T21:13:54.050Z,100612.48
2022-12-25T21:16:22.859Z,100619.10
2022-12-25T21:18:53.778Z,100614.65
2022-12-25T21:21:22.315Z,100605.80
2022-12-25T21:23:50.716Z,100604.95
2022-12-25T21:26:29.225Z,100606.05
2022-12-25T21:29:00.294Z,100598.55
2022-12-25T21:31:30.557Z,100597.39
2022-12-25T21:33:59.206Z,100594.70
2022-12-25T21:36:34.118Z,100597.20
2022-12-25T21:39:11.755Z,100591.63
2022-12-25T21:41:39.776Z,100590.72
2022-12-25T21:44:08.914Z,100594.35
2022-12-25T21:46:36.798Z,100585.92
2022-12-25T21:49:04.837Z,100577.14
2022-12-25T21:51:53.014Z,100583.83
2022-12-25T21:54:23.015Z,100575.10
2022-12-25T21:56:51.004Z,100569.70
2022-12-25T21:59:22.311Z,100566.98
2022-12-25T22:01:52.452Z,100557.14
2022-12-25T22:04:22.850Z,100547.42
2022-12-25T22:07:09.952Z,100532.48
2022-12-25T22:09:38.059Z,100519.44
2022-12-25T22:12:31.927Z,100508.08
2022-12-25T22:15:09.440Z,100495.79
2022-12-25T22:18:02.100Z,100496.24
2022-12-25T22:20:38.227Z,100493.23
2022-12-25T22:23:06.163Z,100490.64
2022-12-25T22:25:34.152Z,100495.94
2022-12-25T22:28:03.601Z,100495.78
2022-12-25T22:30:31.813Z,100497.35
2022-12-25T22:32:59.703Z,100495.89
2022-12-25T22:35:27.633Z,100490.39
2022-12-25T22:37:55.552Z,100484.13
2022-12-25T22:40:23.525Z,100485.27
2022-12-25T22:42:55.456Z,100481.34
2022-12-25T22:45:24.268Z,100466.09
2022-12-25T22:47:52.195Z,100470.33
2022-12-25T22:50:20.236Z,100475.78
2022-12-25T22:52:48.084Z,100464.95
2022-12-25T22:55:18.767Z,100463.63
2022-12-25T22:57:47.150Z,100458.66
2022-12-25T23:00:15.298Z,100453.10
2022-12-25T23:02:43.434Z,100456.45
2022-12-25T23:05:11.634Z,100457.77
2022-12-25T23:07:40.288Z,100442.35
2022-12-25T23:10:09.123Z,100435.11
2022-12-25T23:12:55.743Z,100408.45
2022-12-25T23:15:23.816Z,100420.54
2022-12-25T23:18:10.569Z,100427.44
2022-12-25T23:20:57.005Z,100407.64
2022-12-25T23:23:43.685Z,100420.38
2022-12-25T23:26:13.354Z,100419.84
2022-12-25T23:29:02.092Z,100418.02
2022-12-25T23:31:39.437Z,100410.14
2022-12-25T23:34:08.566Z,100404.23
2022-12-25T23:36:36.489Z,100385.80
2022-12-25T23:39:09.609Z,100365.65
2022-12-25T23:41:43.169Z,100374.23
2022-12-25T23:44:13.130Z,100377.87
2022-12-25T23:46:52.678Z,100376.75
2022-12-25T23:49:23.819Z,100364.44
2022-12-25T23:51:53.276Z,100358.75
2022-12-25T23:54:29.804Z,100362.11
2022-12-25T23:56:59.689Z,100366.27
2022-12-25T23:59:30.410Z,100369.20
